createdAt,value
2023-01-18T20:27:47.835Z,2.34
2023-01-18T20:28:47.756Z,2.28
2023-01-18T20:29:47.693Z,2.39
2023-01-18T20:30:47.647Z,2.39
2023-01-18T20:31:50.175Z,2.36
2023-01-18T20:32:47.541Z,2.32
2023-01-18T20:33:47.483Z,2.34
2023-01-18T20:34:47.788Z,2.33
2023-01-18T20:35:47.376Z,2.39
2023-01-18T20:36:47.326Z,2.37
2023-01-18T20:37:47.277Z,2.34
2023-01-18T20:38:47.223Z,2.36
2023-01-18T20:39:47.169Z,2.37
2023-01-18T20:40:47.124Z,2.32
2023-01-18T20:41:47.067Z,2.37
2023-01-18T20:42:47.018Z,2.39
2023-01-18T20:43:47.022Z,2.40
2023-01-18T20:44:46.924Z,2.37
2023-01-18T20:45:46.968Z,2.40
2023-01-18T20:46:47.537Z,2.39
2023-01-18T20:47:46.770Z,2.37
2023-01-18T20:48:46.719Z,2.40
2023-01-18T20:49:46.668Z,2.43
2023-01-18T20:50:46.619Z,2.37
2023-01-18T20:51:46.575Z,2.34
2023-01-18T20:52:46.545Z,2.43
2023-01-18T20:53:46.473Z,2.41
2023-01-18T20:54:46.422Z,2.37
2023-01-18T20:55:46.371Z,2.41
2023-01-18T20:56:46.327Z,2.39
2023-01-18T20:57:46.281Z,2.40
2023-01-18T20:58:46.228Z,2.47
2023-01-18T20:59:46.296Z,2.41
2023-01-18T21:01:46.170Z,2.54
2023-01-18T21:02:46.055Z,2.52
2023-01-18T21:03:45.980Z,2.55
2023-01-18T21:04:45.929Z,2.54
2023-01-18T21:05:45.912Z,2.52
2023-01-18T21:06:45.834Z,2.52
2023-01-18T21:07:45.791Z,2.57
2023-01-18T21:08:45.752Z,2.59
2023-01-18T21:09:45.689Z,2.54
2023-01-18T21:10:45.640Z,2.54
2023-01-18T21:11:45.592Z,2.58
2023-01-18T21:12:47.039Z,2.59
2023-01-18T21:13:45.493Z,2.64
2023-01-18T21:14:45.441Z,2.61
2023-01-18T21:15:45.423Z,2.55
2023-01-18T21:16:45.399Z,2.59
2023-01-18T21:17:45.298Z,2.57
2023-01-18T21:18:45.250Z,2.57
2023-01-18T21:19:45.205Z,2.57
2023-01-18T21:20:45.157Z,2.55
2023-01-18T21:21:45.106Z,2.62
2023-01-18T21:22:45.053Z,2.70
2023-01-18T21:23:45.011Z,2.68
2023-01-18T21:24:44.957Z,2.68
2023-01-18T21:25:44.915Z,2.69
2023-01-18T21:26:44.867Z,2.69
2023-01-18T21:27:44.823Z,2.69
2023-01-18T21:28:44.769Z,2.64
2023-01-18T21:29:44.720Z,2.79
2023-01-18T21:30:44.678Z,2.77
2023-01-18T21:31:44.767Z,2.79
2023-01-18T21:32:44.570Z,2.75
2023-01-18T21:33:44.544Z,2.75
2023-01-18T21:34:44.475Z,2.79
2023-01-18T21:35:44.425Z,2.82
2023-01-18T21:36:44.382Z,2.79
2023-01-18T21:37:44.333Z,2.87
2023-01-18T21:38:44.289Z,2.80
2023-01-18T21:39:44.276Z,2.77
2023-01-18T21:40:44.181Z,2.85
2023-01-18T21:41:44.143Z,2.87
2023-01-18T21:42:44.084Z,2.85
2023-01-18T21:43:44.037Z,2.93
2023-01-18T21:44:43.991Z,2.79
2023-01-18T21:45:44.016Z,2.90
2023-01-18T21:46:43.890Z,2.90
2023-01-18T21:47:43.908Z,2.77
2023-01-18T21:48:43.810Z,2.85
2023-01-18T21:50:11.381Z,2.85
2023-01-18T21:50:43.727Z,2.76
2023-01-18T21:51:43.650Z,2.76
2023-01-18T21:52:43.648Z,2.79
2023-01-18T21:54:43.506Z,2.82
2023-01-18T21:55:43.453Z,2.79
2023-01-18T21:56:43.412Z,2.73
2023-01-18T21:57:43.357Z,2.76
2023-01-18T21:58:43.310Z,2.79
2023-01-18T21:59:43.269Z,2.76
2023-01-18T22:00:43.218Z,2.83
2023-01-18T22:01:43.314Z,2.76
2023-01-18T22:02:43.200Z,2.83
2023-01-18T22:03:43.088Z,2.76
2023-01-18T22:04:43.020Z,2.72
2023-01-18T22:05:42.979Z,2.77
2023-01-18T22:06:42.932Z,2.75
2023-01-18T22:07:42.883Z,2.79
2023-01-18T22:08:42.826Z,2.77
2023-01-18T22:09:45.354Z,2.75
2023-01-18T22:10:42.729Z,2.70
2023-01-18T22:11:42.686Z,2.73
2023-01-18T22:12:42.635Z,2.77
2023-01-18T22:13:42.587Z,2.75
2023-01-18T22:14:42.534Z,2.77
2023-01-18T22:15:42.492Z,2.76
2023-01-18T22:16:42.474Z,2.79
2023-01-18T22:17:42.388Z,2.82
2023-01-18T22:18:42.961Z,2.76
2023-01-18T22:19:42.314Z,2.77
2023-01-18T22:20:42.247Z,2.80
2023-01-18T22:21:42.196Z,2.79
2023-01-18T22:22:42.147Z,2.83
2023-01-18T22:23:42.100Z,2.87
2023-01-18T22:24:42.051Z,2.88
2023-01-18T22:25:41.999Z,2.88
2023-01-18T22:26:41.953Z,2.87
2023-01-18T22:27:41.906Z,2.87
2023-01-18T22:28:41.859Z,2.93
2023-01-18T22:29:41.808Z,2.87
2023-01-18T22:30:41.811Z,2.94
2023-01-18T22:31:41.715Z,2.85
2023-01-18T22:32:41.663Z,2.87
2023-01-18T22:33:41.618Z,2.93
2023-01-18T22:34:41.567Z,2.90
2023-01-18T22:35:41.537Z,2.95
2023-01-18T22:36:41.473Z,2.85
2023-01-18T22:37:41.430Z,2.94
2023-01-18T22:38:41.373Z,2.98
2023-01-18T22:39:41.335Z,2.95
2023-01-18T22:40:41.276Z,2.98
2023-01-18T22:41:41.224Z,2.97
2023-01-18T22:42:41.176Z,2.95
2023-01-18T22:43:41.128Z,2.93
2023-01-18T22:44:41.083Z,3.00
2023-01-18T22:45:41.033Z,2.97
2023-01-18T22:46:40.984Z,2.97
2023-01-18T22:47:40.939Z,2.95
2023-01-18T22:48:40.899Z,3.05
2023-01-18T22:49:40.838Z,3.00
2023-01-18T22:50:40.806Z,3.01
2023-01-18T22:51:40.761Z,2.98
2023-01-18T22:52:40.693Z,3.01
2023-01-18T22:53:40.646Z,3.00
2023-01-18T22:54:40.600Z,3.03
2023-01-18T22:55:40.550Z,3.00
2023-01-18T22:56:40.501Z,3.01
2023-01-18T22:57:40.452Z,2.95
2023-01-18T22:58:40.405Z,3.00
2023-01-18T22:59:40.360Z,2.98
2023-01-18T23:00:40.305Z,2.90
2023-01-18T23:01:40.258Z,2.83
2023-01-18T23:02:40.217Z,2.93
2023-01-18T23:03:40.304Z,2.98
2023-01-18T23:04:40.114Z,2.91
2023-01-18T23:05:40.061Z,2.87
2023-01-18T23:06:40.077Z,2.88
2023-01-18T23:07:39.987Z,2.85
2023-01-18T23:08:39.917Z,2.85
2023-01-18T23:09:39.868Z,2.87
2023-01-18T23:10:39.823Z,2.87
2023-01-18T23:11:39.774Z,2.87
2023-01-18T23:12:39.724Z,2.85
2023-01-18T23:13:39.876Z,2.79
2023-01-18T23:14:39.637Z,2.88
2023-01-18T23:15:39.583Z,2.90
2023-01-18T23:17:39.501Z,2.87
2023-01-18T23:18:39.429Z,2.85
2023-01-18T23:20:39.335Z,2.90
2023-01-18T23:21:39.284Z,2.88
2023-01-18T23:22:39.235Z,2.80
2023-01-18T23:23:39.204Z,2.82
2023-01-18T23:24:39.147Z,2.90
2023-01-18T23:25:39.091Z,2.77
2023-01-18T23:26:39.053Z,2.80
2023-01-18T23:27:39.008Z,2.76
2023-01-18T23:28:38.946Z,2.79
2023-01-18T23:29:38.959Z,2.77
2023-01-18T23:30:38.856Z,2.90
2023-01-18T23:31:38.802Z,2.82
2023-01-18T23:32:38.765Z,2.88
2023-01-18T23:33:38.701Z,2.80
2023-01-18T23:34:38.654Z,2.90
2023-01-18T23:35:38.611Z,2.80
2023-01-18T23:36:38.565Z,2.82
2023-01-18T23:37:38.510Z,2.83
2023-01-18T23:38:38.465Z,2.87
2023-01-18T23:39:38.515Z,2.88
2023-01-18T23:40:38.363Z,2.93
2023-01-18T23:41:38.311Z,2.82
2023-01-18T23:42:38.265Z,2.85
2023-01-18T23:43:38.215Z,2.85
2023-01-18T23:44:38.172Z,2.90
2023-01-18T23:45:38.127Z,2.91
2023-01-18T23:46:38.116Z,2.85
2023-01-18T23:47:38.022Z,2.88
2023-01-18T23:48:38.201Z,2.85
2023-01-18T23:49:37.922Z,2.87
2023-01-18T23:50:37.882Z,2.82
2023-01-18T23:51:37.828Z,2.85
2023-01-18T23:52:37.783Z,2.90
2023-01-18T23:53:37.750Z,2.90
2023-01-18T23:54:37.681Z,2.88
2023-01-18T23:55:37.651Z,2.85
2023-01-18T23:56:37.600Z,2.83
2023-01-18T23:57:37.533Z,2.87
2023-01-18T23:58:37.488Z,2.85
2023-01-18T23:59:37.437Z,2.90
